Skip Navigation Links
NOAA logo - Click to go to the NOAA homepage
NOAA's National Weather Service
Alaska Aviation Weather Unit
  NWS logo - Click to go to the NWS homepage
Left Navbar Graphic     01 AKDT = 09 GMT

   
NOAA is celebrating 200 years of science, service, and stewardship. Visit the NOAA 200th celebration Web site to learn more.
USA.gov is the U.S. Government's official Web portal to all Federal, state and local government Web resources and services.
Facebook
NWS on Facebook

Important Change Regarding the AAWU Web Presence

 

Over the last several months, the AAWU has been working to navigate its webpages to a nationally supported server. Security, as well as other needs, have necessitated the change.  We have been given an extension for the site changeover while we diligently work at addressing feedback received. As of July 14, 2017, aawu.arh.noaa.gov will be discontinued. The new AAWU web address is weather.gov/aawu. It is now live and will run in-parallel with the old site until it is discontinued on July 14, 2017. Please continue to send any feedback or questions regarding the new webpages to nws.ar.aawu.webauthors@noaa.gov.  Thank you for your patience during this time of transition.
AAWU Home :: Display TAF Add Bookmark
TAF PAHN 190524Z 1906/2006  11010KT P6SM SCT015 OVC070
      TEMPO 1906/1910 09010G18KT 6SM -SHRA BR BKN015 OVC070
     FM191000 10010KT P6SM -SHRA SCT015 BKN025 OVC060
     FM192100 13010KT P6SM -SHRA SCT025 BKN035 OVC050
      AMD LTD TO CLD VIS AND WIND=

7428
FTAK31 PAJN 190524
TAFAKT
TAF
SPECI PAHN 190341Z AUTO 09010G18KT 10SM BKN014 OVC075 13/11 A2991
 RMK AO2 T01280106 TSNO=

METAR PAHN 190354Z AUTO 09008KT 10SM SCT013 OVC070 13/11 A2991 RMK AO2
     SLP131 T01280106 TSNO=

SPECI PAHN 190437Z AUTO 10008KT 10SM BKN014 OVC070 12/11 A2992 RMK AO2
     T01220106 TSNO=

METAR PAHN 190454Z AUTO 09009G17KT 10SM SCT013 OVC080 12/11 A2992 RMK
     AO2 SLP135 T01220106 TSNO=

METAR PAHN 190554Z AUTO 10007G17KT 10SM FEW012 OVC070 12/11 A2993 RMK
     AO2 SLP138 60001 T01220106 10144 20122 53006 TSNO=

METAR PAHN 190654Z AUTO 08008KT 10SM BKN010 OVC070 12/11 A2994 RMK AO2
     SLP140 T01220106 TSNO=

METAR PAHN 190754Z AUTO VRB05G16KT 10SM OVC010 12/11 A2995 RMK AO2 CIG
     008V013 SLP143 T01220106 TSNO=

METAR PAHN 190854Z AUTO 09008KT 050V120 10SM BKN010 OVC015 12/11 A2995
     RMK AO2 CIG 009V014 SLP144 T01170106 401500100 53005 TSNO=


NOAA's National Weather Service
Alaska Aviation Weather Unit
6930 Sand Lake Road
Anchorage, AK 99502-1845
Disclaimer
Credits
Glossary
Privacy Policy
About Us
Career Opportunities
Contact AAWU Internet Services Site last modified: April, 17th 2012